« Back
NWS Peachtree City, Ga » Text Product » CSG Terminal Aerodrome Forecast


Printer-friendly Version
Current Version              Previous Versions:   1  2  3  4  5  6  7  8  9  

Terminal Aerodrome Forecast

878
FTUS42 KFFC 011700
TAFCSG
TAF
KCSG 011736Z 0118/0218 06005KT P6SM VCSH BKN015
     FM011900 06005KT P6SM VCSH BKN035
     FM020000 07005KT P6SM VCSH SCT025 BKN080
     FM020800 07003KT 6SM BR BKN025
     FM021000 07005KT 6SM BR BKN015
     FM021400 07004KT P6SM VCSH BKN035=



USA.gov is the U.S. government's official web portal to all federal, state and local government web resources and services.